Time;durP1;ratioP1;P1;durP2;ratioP2;P2;SDS_P1;SDS_P2;PMS_P1;PMS_P2;Temp;Humidity;BMP_temperature;BMP_pressure;BME280_temperature;BME280_humidity;BME280_pressure;Samples;Min_cycle;Max_cycle;Signal;HPM_P1;HPM_P2
2021/08/11 00:02:02;;;;;;;23.23;15.35;;;;;;;;;;5137118;27;20086;-75
2021/08/11 00:04:28;;;;;;;23.73;15.82;;;;;;;;;;5139324;27;20039;-75
2021/08/11 00:06:55;;;;;;;24.90;16.45;;;;;;;;;;5142218;27;20481;-74
2021/08/11 00:09:21;;;;;;;20.20;15.80;;;;;;;;;;5140721;27;20586;-75
2021/08/11 00:11:47;;;;;;;20.33;14.95;;;;;;;;;;5140640;27;20487;-75
2021/08/11 00:14:13;;;;;;;20.95;16.00;;;;;;;;;;5122656;27;20038;-75
2021/08/11 00:16:39;;;;;;;23.65;15.65;;;;;;;;;;5142342;27;20047;-75
2021/08/11 00:19:05;;;;;;;21.08;14.05;;;;;;;;;;5152562;27;20095;-73
2021/08/11 00:21:32;;;;;;;24.83;16.50;;;;;;;;;;5148398;27;20489;-75
2021/08/11 00:23:58;;;;;;;23.05;17.13;;;;;;;;;;5145744;27;20042;-75
2021/08/11 00:26:24;;;;;;;26.63;17.88;;;;;;;;;;5145534;27;20035;-75
2021/08/11 00:28:50;;;;;;;23.50;17.25;;;;;;;;;;5143701;27;20641;-75
2021/08/11 00:31:16;;;;;;;27.20;17.95;;;;;;;;;;5145430;27;20415;-74
2021/08/11 00:33:42;;;;;;;25.15;16.98;;;;;;;;;;5148348;27;20043;-74
2021/08/11 00:36:08;;;;;;;29.40;19.05;;;;;;;;;;5149683;27;20099;-75
2021/08/11 00:38:35;;;;;;;27.20;19.15;;;;;;;;;;5144646;27;20034;-74
2021/08/11 00:41:01;;;;;;;31.45;19.52;;;;;;;;;;5151635;27;20126;-75
2021/08/11 00:43:27;;;;;;;25.30;19.10;;;;;;;;;;5142137;27;20043;-72
2021/08/11 00:45:53;;;;;;;30.50;19.13;;;;;;;;;;5146878;27;20088;-73
2021/08/11 00:48:20;;;;;;;29.08;20.02;;;;;;;;;;5147514;27;20039;-75
2021/08/11 00:50:47;;;;;;;27.42;18.88;;;;;;;;;;5140907;27;20039;-75
2021/08/11 00:53:15;;;;;;;33.30;20.20;;;;;;;;;;5123618;27;20058;-75
2021/08/11 00:55:41;;;;;;;26.20;17.15;;;;;;;;;;5147105;27;20073;-75
2021/08/11 00:58:09;;;;;;;30.50;19.73;;;;;;;;;;5142358;27;20485;-75
2021/08/11 01:00:36;;;;;;;27.67;19.10;;;;;;;;;;5147313;27;20073;-75
2021/08/11 01:03:04;;;;;;;33.58;20.33;;;;;;;;;;5138008;27;20035;-75
2021/08/11 01:05:30;;;;;;;23.58;18.25;;;;;;;;;;5147325;27;20092;-75
2021/08/11 01:07:57;;;;;;;28.30;20.35;;;;;;;;;;5150740;27;20043;-75
2021/08/11 01:10:24;;;;;;;33.30;21.08;;;;;;;;;;5137880;27;20542;-75
2021/08/11 01:12:50;;;;;;;30.35;21.15;;;;;;;;;;5141561;27;20035;-75
2021/08/11 01:15:17;;;;;;;30.95;19.88;;;;;;;;;;5143591;27;20095;-74
2021/08/11 01:17:43;;;;;;;38.15;21.63;;;;;;;;;;5146697;27;20046;-74
2021/08/11 01:20:10;;;;;;;37.03;21.00;;;;;;;;;;5123504;27;20054;-75
2021/08/11 01:23:09;;;;;;;43.35;22.65;;;;;;;;;;5142788;27;20177;-74
2021/08/11 01:25:38;;;;;;;37.40;21.95;;;;;;;;;;5098876;27;20516;-74
2021/08/11 01:28:25;;;;;;;43.25;23.50;;;;;;;;;;5122381;27;20393;-74
2021/08/11 01:30:54;;;;;;;34.97;21.95;;;;;;;;;;5148101;27;20482;-75
2021/08/11 01:33:45;;;;;;;41.67;22.27;;;;;;;;;;5146431;27;20443;-73
2021/08/11 01:36:23;;;;;;;33.67;21.75;;;;;;;;;;5146052;27;20146;-74
2021/08/11 01:38:55;;;;;;;35.55;21.77;;;;;;;;;;5138182;27;20043;-75
2021/08/11 01:41:25;;;;;;;32.55;20.83;;;;;;;;;;5135063;27;20431;-74
2021/08/11 01:43:51;;;;;;;33.10;20.52;;;;;;;;;;5141580;27;20047;-74
2021/08/11 01:46:18;;;;;;;33.67;21.05;;;;;;;;;;5141429;27;20051;-73
2021/08/11 01:48:45;;;;;;;28.60;20.13;;;;;;;;;;5138697;27;20039;-74
2021/08/11 01:51:12;;;;;;;26.85;19.48;;;;;;;;;;5139171;27;20035;-75
2021/08/11 01:53:38;;;;;;;38.90;20.77;;;;;;;;;;5146408;27;20042;-73
2021/08/11 01:56:04;;;;;;;30.20;20.02;;;;;;;;;;5141375;27;20385;-75
2021/08/11 01:58:31;;;;;;;23.90;17.60;;;;;;;;;;5143904;27;20039;-74
2021/08/11 02:00:59;;;;;;;28.30;18.88;;;;;;;;;;5139348;27;20473;-72
2021/08/11 02:03:25;;;;;;;32.50;19.55;;;;;;;;;;5141927;27;20094;-75
2021/08/11 02:05:53;;;;;;;29.60;19.30;;;;;;;;;;5143386;27;20082;-75
2021/08/11 02:08:20;;;;;;;25.92;18.70;;;;;;;;;;5145466;27;20050;-74
2021/08/11 02:10:48;;;;;;;27.85;18.83;;;;;;;;;;5135713;27;20390;-74
2021/08/11 02:13:14;;;;;;;27.33;17.95;;;;;;;;;;5139094;27;20039;-74
2021/08/11 02:15:40;;;;;;;29.98;17.98;;;;;;;;;;5139920;27;20039;-74
2021/08/11 02:18:06;;;;;;;25.02;17.63;;;;;;;;;;5144919;27;20050;-75
2021/08/11 02:20:33;;;;;;;25.55;17.88;;;;;;;;;;5139636;27;20057;-74
2021/08/11 02:22:59;;;;;;;23.58;16.98;;;;;;;;;;5143909;27;20163;-73
2021/08/11 02:25:25;;;;;;;31.48;18.83;;;;;;;;;;5148827;27;20363;-74
2021/08/11 02:28:06;;;;;;;30.42;17.75;;;;;;;;;;5142216;27;20046;-74
2021/08/11 02:30:51;;;;;;;25.58;17.40;;;;;;;;;;5136544;27;20488;-75
2021/08/11 02:33:20;;;;;;;29.83;18.80;;;;;;;;;;5144356;27;20080;-75
2021/08/11 02:35:52;;;;;;;32.97;20.80;;;;;;;;;;5137321;27;20045;-74
2021/08/11 02:38:24;;;;;;;34.65;21.75;;;;;;;;;;5135885;27;20036;-74
2021/08/11 02:40:58;;;;;;;41.25;22.45;;;;;;;;;;5137716;27;20031;-75
2021/08/11 02:43:45;;;;;;;38.67;23.17;;;;;;;;;;5138362;27;20062;-74
2021/08/11 02:46:15;;;;;;;35.85;20.63;;;;;;;;;;5136132;27;20047;-74
2021/08/11 02:48:42;;;;;;;37.10;21.10;;;;;;;;;;5145679;27;20053;-74
2021/08/11 02:51:09;;;;;;;36.22;21.13;;;;;;;;;;5142298;27;20039;-74
2021/08/11 02:53:36;;;;;;;39.17;22.58;;;;;;;;;;5128142;27;20034;-74
2021/08/11 02:56:03;;;;;;;46.22;23.45;;;;;;;;;;5143392;27;20554;-75
2021/08/11 02:58:31;;;;;;;33.47;20.73;;;;;;;;;;5139654;27;20043;-74
2021/08/11 03:00:57;;;;;;;36.60;20.88;;;;;;;;;;5134200;27;20522;-75
2021/08/11 03:03:23;;;;;;;36.88;22.25;;;;;;;;;;5140299;27;20474;-74
2021/08/11 03:05:49;;;;;;;31.05;20.45;;;;;;;;;;5145667;27;20042;-74
2021/08/11 03:08:16;;;;;;;29.38;19.83;;;;;;;;;;5139280;27;20053;-74
2021/08/11 03:10:42;;;;;;;39.63;21.13;;;;;;;;;;5140294;27;20035;-75
2021/08/11 03:13:13;;;;;;;33.08;19.67;;;;;;;;;;5137719;27;20130;-74
2021/08/11 03:15:41;;;;;;;39.92;22.02;;;;;;;;;;5141596;27;20134;-75
2021/08/11 03:18:08;;;;;;;30.27;19.73;;;;;;;;;;5142242;27;20039;-74
2021/08/11 03:20:34;;;;;;;34.00;19.80;;;;;;;;;;5143343;27;20034;-74
2021/08/11 03:23:01;;;;;;;32.40;18.48;;;;;;;;;;5141165;27;20070;-74
2021/08/11 03:25:27;;;;;;;37.10;21.55;;;;;;;;;;5138079;27;20040;-75
2021/08/11 03:27:53;;;;;;;38.08;20.02;;;;;;;;;;5138862;27;20043;-75
2021/08/11 03:30:19;;;;;;;31.35;18.58;;;;;;;;;;5140771;27;20049;-74
2021/08/11 03:32:45;;;;;;;30.08;18.60;;;;;;;;;;5140993;27;20031;-71
2021/08/11 03:35:12;;;;;;;29.92;18.60;;;;;;;;;;5143504;27;20118;-74
2021/08/11 03:37:38;;;;;;;36.88;20.65;;;;;;;;;;5135103;27;20050;-71
2021/08/11 03:40:04;;;;;;;29.92;18.52;;;;;;;;;;5137962;27;20064;-74
2021/08/11 03:42:31;;;;;;;28.60;18.75;;;;;;;;;;5148002;27;20477;-74
2021/08/11 03:44:57;;;;;;;28.85;18.92;;;;;;;;;;5136917;27;20039;-74
2021/08/11 03:47:23;;;;;;;32.80;18.92;;;;;;;;;;5138451;27;20039;-75
2021/08/11 03:49:50;;;;;;;36.83;19.30;;;;;;;;;;5141578;27;20094;-74
2021/08/11 03:52:17;;;;;;;37.05;20.77;;;;;;;;;;5143027;27;20043;-73
2021/08/11 03:54:43;;;;;;;31.42;20.13;;;;;;;;;;5121052;27;20041;-74
2021/08/11 03:57:09;;;;;;;30.50;19.60;;;;;;;;;;5136740;27;20043;-75
2021/08/11 03:59:35;;;;;;;41.75;20.52;;;;;;;;;;5142308;27;20049;-74
2021/08/11 04:02:01;;;;;;;39.88;20.92;;;;;;;;;;5139318;27;20039;-74
2021/08/11 04:04:27;;;;;;;40.65;21.85;;;;;;;;;;5121457;27;20055;-74
2021/08/11 04:06:54;;;;;;;42.55;21.40;;;;;;;;;;5137918;27;20474;-76
2021/08/11 04:09:20;;;;;;;32.08;19.85;;;;;;;;;;5144969;27;20042;-76
2021/08/11 04:11:46;;;;;;;39.00;21.65;;;;;;;;;;5135666;27;20049;-76
2021/08/11 04:14:13;;;;;;;37.15;21.42;;;;;;;;;;5141992;27;20035;-74
2021/08/11 04:16:39;;;;;;;37.30;21.70;;;;;;;;;;5135723;27;20084;-78
2021/08/11 04:19:05;;;;;;;33.60;19.67;;;;;;;;;;5133569;27;20042;-78
2021/08/11 04:21:32;;;;;;;40.83;22.00;;;;;;;;;;5135455;27;20062;-74
2021/08/11 04:23:58;;;;;;;33.80;19.95;;;;;;;;;;5141849;27;20035;-75
2021/08/11 04:26:24;;;;;;;41.63;22.08;;;;;;;;;;5118492;27;20043;-75
2021/08/11 04:28:50;;;;;;;31.80;20.85;;;;;;;;;;5139176;27;20034;-75
2021/08/11 04:31:17;;;;;;;39.25;22.33;;;;;;;;;;5133971;27;20054;-74
2021/08/11 04:33:43;;;;;;;40.47;22.40;;;;;;;;;;5134793;27;20385;-79
2021/08/11 04:36:09;;;;;;;40.28;21.60;;;;;;;;;;5139793;27;20043;-75
2021/08/11 04:38:35;;;;;;;38.28;20.50;;;;;;;;;;5131885;27;20036;-75
2021/08/11 04:41:01;;;;;;;36.15;21.13;;;;;;;;;;5144908;27;20082;-77
2021/08/11 04:43:29;;;;;;;35.88;20.15;;;;;;;;;;5145761;27;20474;-79
2021/08/11 04:45:55;;;;;;;34.60;21.52;;;;;;;;;;5135430;27;20035;-74
2021/08/11 04:48:21;;;;;;;37.45;21.52;;;;;;;;;;5142102;27;20099;-76
2021/08/11 04:50:47;;;;;;;33.25;21.40;;;;;;;;;;5138496;27;20034;-79
2021/08/11 04:53:14;;;;;;;34.67;20.42;;;;;;;;;;5145101;27;20053;-78
2021/08/11 04:55:40;;;;;;;30.65;19.95;;;;;;;;;;5119983;27;20051;-75
2021/08/11 04:58:06;;;;;;;34.22;20.60;;;;;;;;;;5139209;27;20046;-75
2021/08/11 05:00:32;;;;;;;36.85;21.17;;;;;;;;;;5144032;27;20126;-75
2021/08/11 05:02:58;;;;;;;28.27;19.05;;;;;;;;;;5138682;27;20457;-78
2021/08/11 05:05:25;;;;;;;31.00;19.58;;;;;;;;;;5150620;27;20492;-74
2021/08/11 05:07:52;;;;;;;28.90;19.55;;;;;;;;;;5147076;27;20050;-74
2021/08/11 05:10:18;;;;;;;31.48;20.55;;;;;;;;;;5147106;27;20043;-74
2021/08/11 05:12:45;;;;;;;26.27;19.27;;;;;;;;;;5135585;27;20075;-72
2021/08/11 05:15:11;;;;;;;28.52;19.67;;;;;;;;;;5141577;27;20458;-74
2021/08/11 05:17:37;;;;;;;28.25;18.75;;;;;;;;;;5139645;27;20054;-74
2021/08/11 05:20:04;;;;;;;24.38;18.45;;;;;;;;;;5135210;27;20047;-73
2021/08/11 05:22:30;;;;;;;23.92;17.02;;;;;;;;;;5117619;27;20046;-73
2021/08/11 05:24:56;;;;;;;27.65;17.77;;;;;;;;;;5153427;27;20047;-73
2021/08/11 05:27:23;;;;;;;22.88;16.38;;;;;;;;;;5133013;27;20434;-74
2021/08/11 05:29:49;;;;;;;21.30;16.23;;;;;;;;;;5133853;27;20176;-74
2021/08/11 05:32:15;;;;;;;24.50;16.15;;;;;;;;;;5135540;27;20039;-74
2021/08/11 05:34:42;;;;;;;20.52;15.13;;;;;;;;;;5134963;27;20364;-73
2021/08/11 05:37:11;;;;;;;19.40;14.40;;;;;;;;;;5117906;27;20043;-75
2021/08/11 05:39:37;;;;;;;19.90;13.95;;;;;;;;;;5134766;27;20502;-74
2021/08/11 05:42:03;;;;;;;18.92;15.35;;;;;;;;;;5135590;27;20440;-74
2021/08/11 05:44:30;;;;;;;22.75;15.70;;;;;;;;;;5134711;27;20039;-74
2021/08/11 05:46:56;;;;;;;18.52;15.63;;;;;;;;;;5134850;27;20047;-74
2021/08/11 05:49:23;;;;;;;19.42;14.55;;;;;;;;;;5134993;27;20509;-74
2021/08/11 05:51:49;;;;;;;26.98;16.08;;;;;;;;;;5135113;27;20061;-74
2021/08/11 05:54:15;;;;;;;21.15;14.25;;;;;;;;;;5116911;27;20039;-75
2021/08/11 05:56:42;;;;;;;18.35;14.20;;;;;;;;;;5148642;27;20038;-74
2021/08/11 05:59:08;;;;;;;17.55;13.27;;;;;;;;;;5138349;27;20043;-73
2021/08/11 06:01:34;;;;;;;17.90;14.10;;;;;;;;;;5116184;27;20070;-75
2021/08/11 06:04:05;;;;;;;17.40;13.23;;;;;;;;;;5138862;27;20043;-75
2021/08/11 06:06:32;;;;;;;18.67;13.23;;;;;;;;;;5132058;27;20055;-74
2021/08/11 06:08:58;;;;;;;18.33;11.70;;;;;;;;;;5135470;27;20093;-75
2021/08/11 06:11:24;;;;;;;20.85;12.75;;;;;;;;;;5135227;27;20486;-75
2021/08/11 06:13:50;;;;;;;20.02;11.70;;;;;;;;;;5126273;27;20389;-75
2021/08/11 06:16:16;;;;;;;15.40;11.25;;;;;;;;;;5134664;27;20051;-75
2021/08/11 06:18:43;;;;;;;14.68;11.50;;;;;;;;;;5133632;27;20509;-74
2021/08/11 06:21:09;;;;;;;15.45;11.10;;;;;;;;;;5135055;27;20370;-75
2021/08/11 06:23:35;;;;;;;18.58;11.45;;;;;;;;;;5134655;27;20034;-75
2021/08/11 06:26:01;;;;;;;15.98;10.07;;;;;;;;;;5133790;27;20035;-75
2021/08/11 06:28:28;;;;;;;16.73;10.15;;;;;;;;;;5134183;27;20047;-75
2021/08/11 06:30:54;;;;;;;14.32;10.00;;;;;;;;;;5134076;27;20042;-75
2021/08/11 06:33:20;;;;;;;14.32;10.65;;;;;;;;;;5134383;27;20062;-75
2021/08/11 06:35:46;;;;;;;10.88;8.98;;;;;;;;;;5132085;27;20065;-75
2021/08/11 06:38:12;;;;;;;;;;;;;;;;;;5134811;27;20031;-75
2021/08/11 06:40:38;;;;;;;;;;;;;;;;;;5127415;27;19963;-76
2021/08/11 06:43:04;;;;;;;;;;;;;;;;;;5134725;27;19926;-75
2021/08/11 06:45:31;;;;;;;;;;;;;;;;;;5116616;27;19919;-75
2021/08/11 06:47:57;;;;;;;;;;;;;;;;;;5134560;27;19929;-76
2021/08/11 06:50:23;;;;;;;;;;;;;;;;;;5149886;27;19987;-76
2021/08/11 06:52:49;;;;;;;;;;;;;;;;;;5142686;27;20220;-75
2021/08/11 06:55:16;;;;;;;;;;;;;;;;;;5134621;27;19919;-76
2021/08/11 06:57:42;;;;;;;;;;;;;;;;;;5133257;27;20006;-75
2021/08/11 07:00:08;;;;;;;;;;;;;;;;;;5136031;27;19934;-75
2021/08/11 07:02:34;;;;;;;;;;;;;;;;;;5133541;27;19935;-75
2021/08/11 07:05:00;;;;;;;;;;;;;;;;;;5133319;27;20381;-75
2021/08/11 07:07:27;;;;;;;;;;;;;;;;;;5134776;27;19926;-76
2021/08/11 07:09:53;;;;;;;;;;;;;;;;;;5139939;27;19919;-75
2021/08/11 07:12:19;;;;;;;;;;;;;;;;;;5145522;27;19919;-76
2021/08/11 07:14:46;;;;;;;;;;;;;;;;;;5133289;27;19919;-76
2021/08/11 07:17:12;;;;;;;;;;;;;;;;;;5133932;27;19926;-75
2021/08/11 07:19:39;;;;;;;;;;;;;;;;;;5133923;27;20270;-74
2021/08/11 07:22:06;;;;;;;;;;;;;;;;;;5134033;27;19926;-76
2021/08/11 07:24:32;;;;;;;;;;;;;;;;;;5133781;27;19927;-76
2021/08/11 07:26:58;;;;;;;;;;;;;;;;;;5132694;27;19927;-76
2021/08/11 07:29:24;;;;;;;;;;;;;;;;;;5123677;27;19919;-76
2021/08/11 07:31:50;;;;;;;;;;;;;;;;;;5133251;27;20006;-76
2021/08/11 07:34:16;;;;;;;;;;;;;;;;;;5133210;27;19919;-73
2021/08/11 07:36:42;;;;;;;;;;;;;;;;;;5144693;27;19957;-75
2021/08/11 07:39:08;;;;;;;;;;;;;;;;;;5134268;27;19926;-76
2021/08/11 07:41:34;;;;;;;;;;;;;;;;;;5134487;27;19930;-76
2021/08/11 07:44:02;;;;;;;;;;;;;;;;;;5133310;27;19963;-75
2021/08/11 07:46:29;;;;;;;;;;;;;;;;;;5133537;27;19920;-76
2021/08/11 07:48:55;;;;;;;;;;;;;;;;;;5132436;27;20263;-76
2021/08/11 07:51:21;;;;;;;;;;;;;;;;;;5132898;27;19919;-75
2021/08/11 07:53:47;;;;;;;;;;;;;;;;;;5132888;27;19923;-76
2021/08/11 07:56:13;;;;;;;;;;;;;;;;;;5133251;27;19920;-76
2021/08/11 07:58:39;;;;;;;;;;;;;;;;;;5134935;27;19958;-76
2021/08/11 08:01:05;;;;;;;;;;;;;;;;;;5132686;27;19934;-76
2021/08/11 08:03:31;;;;;;;;;;;;;;;;;;5133317;27;19926;-76
2021/08/11 08:05:57;;;;;;;;;;;;;;;;;;5132318;27;19920;-77
2021/08/11 08:08:23;;;;;;;;;;;;;;;;;;5133089;27;20385;-74
2021/08/11 08:10:49;;;;;;;;;;;;;;;;;;5131862;27;19923;-74
2021/08/11 08:13:16;;;;;;;;;;;;;;;;;;5132813;27;19920;-75
2021/08/11 08:15:42;;;;;;;;;;;;;;;;;;5132142;27;19920;-71
2021/08/11 08:18:08;;;;;;;;;;;;;;;;;;5137198;27;19971;-73
2021/08/11 08:20:34;;;;;;;;;;;;;;;;;;5132659;27;20018;-74
2021/08/11 08:23:00;;;;;;;;;;;;;;;;;;5132475;27;19925;-74
2021/08/11 08:25:26;;;;;;;;;;;;;;;;;;5133098;27;20301;-74
2021/08/11 08:27:52;;;;;;;;;;;;;;;;;;5132938;27;19923;-74
2021/08/11 08:30:19;;;;;;;;;;;;;;;;;;5133237;27;20285;-73
2021/08/11 08:32:45;;;;;;;;;;;;;;;;;;5132505;27;20385;-71
2021/08/11 08:35:11;;;;;;;;;;;;;;;;;;5133341;27;19923;-73
2021/08/11 08:37:37;;;;;;;;;;;;;;;;;;5135514;27;19924;-74
2021/08/11 08:40:03;;;;;;;;;;;;;;;;;;5136248;27;19927;-74
2021/08/11 08:42:29;;;;;;;;;;;;;;;;;;5136225;27;19976;-74
2021/08/11 08:44:55;;;;;;;;;;;;;;;;;;5136816;27;19927;-75
2021/08/11 08:47:22;;;;;;;;;;;;;;;;;;5136919;27;19938;-75
2021/08/11 08:49:48;;;;;;;;;;;;;;;;;;5135533;27;19919;-74
2021/08/11 08:52:14;;;;;;;;;;;;;;;;;;5137253;27;20019;-75
2021/08/11 08:54:40;;;;;;;;;;;;;;;;;;5136496;27;19974;-74
2021/08/11 08:57:06;;;;;;;;;;;;;;;;;;5136398;27;19920;-75
2021/08/11 08:59:32;;;;;;;;;;;;;;;;;;5137104;27;20427;-74
2021/08/11 09:01:58;;;;;;;;;;;;;;;;;;5135588;27;19919;-75
2021/08/11 09:04:24;;;;;;;;;;;;;;;;;;5136769;27;19923;-74
2021/08/11 09:06:50;;;;;;;10.35;5.32;;;;;;;;;;5135683;27;19923;-74
2021/08/11 09:09:16;;;;;;;10.43;5.97;;;;;;;;;;5141742;27;20163;-74
2021/08/11 09:11:43;;;;;;;9.50;5.75;;;;;;;;;;5152671;27;20557;-75
2021/08/11 09:14:16;;;;;;;9.88;6.05;;;;;;;;;;5135354;27;20126;-75
2021/08/11 09:16:46;;;;;;;11.13;6.28;;;;;;;;;;5142910;27;20509;-74
2021/08/11 09:19:12;;;;;;;9.77;5.85;;;;;;;;;;5135780;27;20039;-74
2021/08/11 09:21:39;;;;;;;12.57;6.63;;;;;;;;;;5136213;27;20043;-74
2021/08/11 09:24:17;;;;;;;11.27;6.38;;;;;;;;;;5134724;27;20039;-75
2021/08/11 09:26:43;;;;;;;10.65;6.45;;;;;;;;;;5124201;27;20039;-75
2021/08/11 09:29:10;;;;;;;10.05;6.20;;;;;;;;;;5140663;27;20053;-75
2021/08/11 09:31:36;;;;;;;;;;;;;;;;;;5121398;27;20473;-75
2021/08/11 09:34:12;;;;;;;10.77;6.38;;;;;;;;;;5137447;27;19926;-75
2021/08/11 09:36:42;;;;;;;12.10;5.85;;;;;;;;;;5141540;27;20042;-75
2021/08/11 09:39:09;;;;;;;9.60;5.40;;;;;;;;;;5139029;27;20066;-80
2021/08/11 09:41:35;;;;;;;9.23;6.45;;;;;;;;;;5136528;27;20043;-78
2021/08/11 09:44:11;;;;;;;12.10;7.68;;;;;;;;;;5134126;27;20471;-77
2021/08/11 09:46:38;;;;;;;11.25;7.28;;;;;;;;;;5136445;27;20038;-76
2021/08/11 09:49:18;;;;;;;12.23;7.40;;;;;;;;;;5134814;27;20129;-75
2021/08/11 09:52:04;;;;;;;13.95;7.15;;;;;;;;;;5146334;27;20457;-79
2021/08/11 09:54:32;;;;;;;11.35;7.20;;;;;;;;;;5155507;27;20464;-79
2021/08/11 09:56:58;;;;;;;10.60;7.40;;;;;;;;;;5137265;27;20126;-73
2021/08/11 09:59:25;;;;;;;11.65;7.07;;;;;;;;;;5134553;27;20055;-80
2021/08/11 10:01:51;;;;;;;12.18;6.95;;;;;;;;;;5140226;27;20034;-79
2021/08/11 10:04:19;;;;;;;11.38;6.55;;;;;;;;;;5136782;27;20039;-80
2021/08/11 10:06:46;;;;;;;10.00;7.45;;;;;;;;;;5136507;27;20035;-79
2021/08/11 10:09:16;;;;;;;9.40;6.57;;;;;;;;;;5133733;27;20045;-79
2021/08/11 10:11:44;;;;;;;10.00;6.53;;;;;;;;;;5149004;27;20087;-79
2021/08/11 10:14:11;;;;;;;9.57;6.10;;;;;;;;;;5149932;27;20466;-78
2021/08/11 10:16:38;;;;;;;12.27;6.85;;;;;;;;;;5148764;27;20103;-80
2021/08/11 10:19:05;;;;;;;9.07;5.03;;;;;;;;;;5132689;27;20047;-78
2021/08/11 10:21:33;;;;;;;11.40;5.82;;;;;;;;;;5134353;27;20043;-78
2021/08/11 10:24:00;;;;;;;10.77;6.70;;;;;;;;;;5135363;27;20103;-73
2021/08/11 10:26:28;;;;;;;10.07;5.75;;;;;;;;;;5133820;27;20375;-78
2021/08/11 10:28:54;;;;;;;10.52;5.30;;;;;;;;;;5117828;27;20118;-78
2021/08/11 10:31:21;;;;;;;12.45;5.90;;;;;;;;;;5133408;27;20194;-79
2021/08/11 10:33:48;;;;;;;10.05;5.70;;;;;;;;;;5134331;27;20095;-78
2021/08/11 10:36:15;;;;;;;8.65;5.20;;;;;;;;;;5134641;27;20110;-79
2021/08/11 10:38:43;;;;;;;10.75;5.60;;;;;;;;;;5134123;27;20478;-80
2021/08/11 10:41:09;;;;;;;10.45;5.20;;;;;;;;;;5133213;27;20381;-79
2021/08/11 10:43:35;;;;;;;7.03;4.40;;;;;;;;;;5146649;27;20049;-79
2021/08/11 10:46:05;;;;;;;8.40;5.20;;;;;;;;;;5140582;27;20043;-79
2021/08/11 10:48:31;;;;;;;13.20;6.30;;;;;;;;;;5133955;27;20105;-78
2021/08/11 10:50:58;;;;;;;10.90;5.80;;;;;;;;;;5116143;27;20377;-79
2021/08/11 10:53:25;;;;;;;10.90;5.75;;;;;;;;;;5133797;27;20046;-79
2021/08/11 10:55:52;;;;;;;8.23;5.30;;;;;;;;;;5133480;27;20439;-78
2021/08/11 10:58:37;;;;;;;8.05;5.07;;;;;;;;;;5152058;27;20057;-80
2021/08/11 11:01:04;;;;;;;10.48;5.45;;;;;;;;;;5132045;27;20092;-79
2021/08/11 11:03:48;;;;;;;8.02;4.97;;;;;;;;;;5124232;27;20035;-79
2021/08/11 11:06:14;;;;;;;9.27;5.15;;;;;;;;;;5133885;27;20115;-79
2021/08/11 11:08:40;;;;;;;10.30;5.05;;;;;;;;;;5132226;27;20462;-79
2021/08/11 11:11:25;;;;;;;8.95;4.60;;;;;;;;;;5148598;27;20042;-79
2021/08/11 11:13:51;;;;;;;9.95;4.78;;;;;;;;;;5133637;27;20035;-77
2021/08/11 11:16:17;;;;;;;8.65;5.20;;;;;;;;;;5132603;27;20489;-79
2021/08/11 11:19:02;;;;;;;8.93;4.78;;;;;;;;;;5133351;27;20047;-79
2021/08/11 11:21:28;;;;;;;8.88;5.10;;;;;;;;;;5133420;27;20400;-78
2021/08/11 11:23:55;;;;;;;11.07;4.65;;;;;;;;;;5131442;27;20035;-78
2021/08/11 11:26:34;;;;;;;7.50;4.40;;;;;;;;;;5133045;27;20113;-79
2021/08/11 11:29:10;;;;;;;8.98;4.85;;;;;;;;;;5133794;27;20377;-81
2021/08/11 11:31:38;;;;;;;5.93;4.15;;;;;;;;;;5133630;27;20046;-75
2021/08/11 11:34:19;;;;;;;6.68;4.20;;;;;;;;;;5133513;27;20043;-77
2021/08/11 11:36:46;;;;;;;10.68;4.72;;;;;;;;;;5131920;27;20241;-80
2021/08/11 11:39:13;;;;;;;14.50;5.70;;;;;;;;;;5143452;27;20114;-78
2021/08/11 11:41:59;;;;;;;10.43;5.03;;;;;;;;;;5133107;27;20065;-77
2021/08/11 11:44:44;;;;;;;7.65;5.18;;;;;;;;;;5132948;27;20374;-78
2021/08/11 11:47:11;;;;;;;8.77;5.03;;;;;;;;;;5132324;27;20031;-79
2021/08/11 11:49:38;;;;;;;8.52;4.68;;;;;;;;;;5132848;27;20039;-79
2021/08/11 11:52:05;;;;;;;7.22;4.78;;;;;;;;;;5133070;27;20046;-78
2021/08/11 11:54:33;;;;;;;8.25;4.28;;;;;;;;;;5143554;27;20033;-78
2021/08/11 11:57:00;;;;;;;7.90;4.68;;;;;;;;;;5140564;27;20050;-76
2021/08/11 11:59:27;;;;;;;8.02;4.80;;;;;;;;;;5132219;27;20118;-76
2021/08/11 12:01:55;;;;;;;9.23;4.50;;;;;;;;;;5132384;27;20042;-76
2021/08/11 12:04:25;;;;;;;8.15;5.50;;;;;;;;;;5134995;27;20040;-79
2021/08/11 12:06:51;;;;;;;7.32;4.75;;;;;;;;;;5139475;27;20035;-79
2021/08/11 12:09:17;;;;;;;8.65;4.70;;;;;;;;;;5133334;27;20039;-77
2021/08/11 12:11:44;;;;;;;6.68;4.50;;;;;;;;;;5149875;27;20042;-77
2021/08/11 12:14:10;;;;;;;7.22;4.63;;;;;;;;;;5136560;27;20039;-73
2021/08/11 12:16:37;;;;;;;6.93;4.68;;;;;;;;;;5137582;27;20122;-86
2021/08/11 12:19:11;;;;;;;8.63;4.10;;;;;;;;;;5137744;27;20114;-74
2021/08/11 12:21:37;;;;;;;7.78;3.75;;;;;;;;;;5137025;27;20062;-74
2021/08/11 12:24:03;;;;;;;7.10;4.30;;;;;;;;;;5137058;27;20043;-74
2021/08/11 12:26:32;;;;;;;7.00;3.67;;;;;;;;;;5136491;27;20398;-73
2021/08/11 12:28:59;;;;;;;7.60;3.72;;;;;;;;;;5136798;27;20046;-73
2021/08/11 12:31:27;;;;;;;7.03;4.15;;;;;;;;;;5135953;27;20157;-72
2021/08/11 12:33:54;;;;;;;7.03;3.90;;;;;;;;;;5145026;27;20032;-75
2021/08/11 12:36:26;;;;;;;7.13;4.53;;;;;;;;;;5138322;27;20084;-74
2021/08/11 12:39:00;;;;;;;7.53;4.10;;;;;;;;;;5136362;27;20138;-74
2021/08/11 12:41:26;;;;;;;8.05;4.18;;;;;;;;;;5135689;27;20035;-74
2021/08/11 12:43:55;;;;;;;6.63;3.78;;;;;;;;;;5141415;27;20484;-74
2021/08/11 12:46:39;;;;;;;5.15;3.75;;;;;;;;;;5152321;27;20035;-74
2021/08/11 12:49:21;;;;;;;7.22;3.92;;;;;;;;;;5136814;27;20035;-74
2021/08/11 12:51:48;;;;;;;8.20;4.10;;;;;;;;;;5136757;27;20385;-74
2021/08/11 12:54:15;;;;;;;8.50;4.18;;;;;;;;;;5136384;27;20039;-73
2021/08/11 12:56:57;;;;;;;6.85;4.10;;;;;;;;;;5135720;27;20035;-74
2021/08/11 12:59:23;;;;;;;5.13;3.83;;;;;;;;;;5125215;27;20041;-74
2021/08/11 13:01:49;;;;;;;5.72;3.67;;;;;;;;;;5136602;27;20084;-74
2021/08/11 13:04:15;;;;;;;8.07;4.22;;;;;;;;;;5135707;27;20039;-72
2021/08/11 13:06:43;;;;;;;5.88;4.05;;;;;;;;;;5136204;27;20041;-74
2021/08/11 13:09:22;;;;;;;6.28;3.92;;;;;;;;;;5136419;27;20444;-74
2021/08/11 13:12:08;;;;;;;5.90;3.83;;;;;;;;;;5136592;27;20377;-73
2021/08/11 13:15:01;;;;;;;5.63;3.13;;;;;;;;;;5155087;27;20051;-72
2021/08/11 13:17:29;;;;;;;6.32;3.70;;;;;;;;;;5135469;27;20043;-74
2021/08/11 13:20:13;;;;;;;8.27;3.40;;;;;;;;;;5134561;27;20038;-74
2021/08/11 13:22:40;;;;;;;7.80;3.40;;;;;;;;;;5138219;27;20095;-73
2021/08/11 13:25:08;;;;;;;7.38;3.58;;;;;;;;;;5122338;28;20375;-74
2021/08/11 13:27:34;;;;;;;8.32;3.92;;;;;;;;;;5133683;27;20091;-74
2021/08/11 13:30:00;;;;;;;12.65;3.45;;;;;;;;;;5122583;27;20516;-74
2021/08/11 13:32:27;;;;;;;7.20;3.53;;;;;;;;;;5126813;27;20070;-74
2021/08/11 13:34:54;;;;;;;6.75;3.33;;;;;;;;;;5138930;27;20552;-74
2021/08/11 13:37:20;;;;;;;6.03;3.70;;;;;;;;;;5133878;27;20039;-73
2021/08/11 13:39:46;;;;;;;5.68;3.50;;;;;;;;;;5134834;27;20040;-74
2021/08/11 13:42:13;;;;;;;4.45;3.60;;;;;;;;;;5133955;27;20361;-73
2021/08/11 13:44:39;;;;;;;5.28;3.42;;;;;;;;;;5133060;27;20035;-73
2021/08/11 13:47:05;;;;;;;6.90;3.55;;;;;;;;;;5134404;27;20047;-74
2021/08/11 13:49:32;;;;;;;5.80;3.50;;;;;;;;;;5133864;27;20043;-73
2021/08/11 13:51:58;;;;;;;10.32;3.67;;;;;;;;;;5134365;27;20043;-74
2021/08/11 13:54:25;;;;;;;6.93;3.30;;;;;;;;;;5145796;27;20037;-73
2021/08/11 13:56:52;;;;;;;7.85;3.95;;;;;;;;;;5136384;27;20381;-74
2021/08/11 13:59:18;;;;;;;7.28;4.15;;;;;;;;;;5136556;27;20485;-74
2021/08/11 14:01:46;;;;;;;7.07;3.80;;;;;;;;;;5122607;27;20050;-73
2021/08/11 14:04:12;;;;;;;5.43;3.28;;;;;;;;;;5151327;27;20117;-74
2021/08/11 14:06:39;;;;;;;5.47;3.58;;;;;;;;;;5132798;27;20043;-74
2021/08/11 14:09:05;;;;;;;5.85;3.13;;;;;;;;;;5142013;27;20418;-75
2021/08/11 14:11:32;;;;;;;7.38;3.55;;;;;;;;;;5138076;27;20493;-76
2021/08/11 14:13:58;;;;;;;5.45;3.08;;;;;;;;;;5134035;27;20042;-79
2021/08/11 14:16:24;;;;;;;5.70;2.88;;;;;;;;;;5093521;27;1124967;-75
2021/08/11 14:18:51;;;;;;;5.35;3.40;;;;;;;;;;5134914;27;20035;-76
2021/08/11 14:21:17;;;;;;;3.90;2.85;;;;;;;;;;5135046;27;20038;-76
2021/08/11 14:23:43;;;;;;;5.25;2.80;;;;;;;;;;5133642;27;20374;-76
2021/08/11 14:26:09;;;;;;;5.75;3.00;;;;;;;;;;5135331;27;20232;-76
2021/08/11 14:28:35;;;;;;;4.75;3.00;;;;;;;;;;5134210;27;20056;-75
2021/08/11 14:31:02;;;;;;;7.30;2.85;;;;;;;;;;5132243;27;20039;-75
2021/08/11 14:33:28;;;;;;;3.80;2.88;;;;;;;;;;5131898;27;20039;-75
2021/08/11 14:35:54;;;;;;;4.93;3.08;;;;;;;;;;5134067;27;20043;-76
2021/08/11 14:38:21;;;;;;;5.32;3.17;;;;;;;;;;5136128;27;20122;-75
2021/08/11 14:40:47;;;;;;;4.35;3.05;;;;;;;;;;5145060;27;20049;-76
2021/08/11 14:43:13;;;;;;;6.65;3.00;;;;;;;;;;5115805;27;20405;-75
2021/08/11 14:45:39;;;;;;;4.68;3.17;;;;;;;;;;5123180;27;20038;-75
2021/08/11 14:48:06;;;;;;;4.53;3.03;;;;;;;;;;5142747;27;20043;-76
2021/08/11 14:50:32;;;;;;;4.82;3.05;;;;;;;;;;5134036;27;20042;-75
2021/08/11 14:52:58;;;;;;;2.83;2.58;;;;;;;;;;5134428;27;20070;-76